createdAt,value
2023-03-21T00:01:04.730Z,33.58
2023-03-21T00:03:34.888Z,31.30
2023-03-21T00:06:16.577Z,32.28
2023-03-21T00:08:44.603Z,29.67
2023-03-21T00:11:12.944Z,33.03
2023-03-21T00:13:43.595Z,31.85
2023-03-21T00:16:21.540Z,32.28
2023-03-21T00:18:57.286Z,32.05
2023-03-21T00:24:15.403Z,32.95
2023-03-21T00:26:46.138Z,33.70
2023-03-21T00:29:13.130Z,32.55
2023-03-21T00:31:49.903Z,32.95
2023-03-21T00:34:20.348Z,33.78
2023-03-21T00:36:53.878Z,32.33
2023-03-21T00:39:20.817Z,30.27
2023-03-21T00:41:50.678Z,30.38
2023-03-21T00:44:17.542Z,32.70
2023-03-21T00:47:00.876Z,32.97
2023-03-21T00:49:34.000Z,31.63
2023-03-21T00:52:15.114Z,33.83
2023-03-21T00:54:48.933Z,31.55
2023-03-21T00:57:16.147Z,32.88
2023-03-21T00:59:57.577Z,32.03
2023-03-21T01:02:26.875Z,32.40
2023-03-21T01:04:54.429Z,31.80
2023-03-21T01:07:21.800Z,33.33
2023-03-21T01:09:53.024Z,32.03
2023-03-21T01:12:19.875Z,30.85
2023-03-21T01:14:47.058Z,31.38
2023-03-21T01:17:13.924Z,30.73
2023-03-21T01:19:52.296Z,30.65
2023-03-21T01:22:21.218Z,33.60
2023-03-21T01:24:56.961Z,32.13
2023-03-21T01:27:27.205Z,32.03
2023-03-21T01:29:53.986Z,31.60
2023-03-21T01:32:23.396Z,32.13
2023-03-21T01:34:50.350Z,32.90
2023-03-21T01:37:19.070Z,31.05
2023-03-21T01:39:47.863Z,30.35
2023-03-21T01:42:15.415Z,30.38
2023-03-21T01:45:03.309Z,30.02
2023-03-21T01:47:30.059Z,30.60
2023-03-21T01:50:03.716Z,31.63
2023-03-21T01:52:44.703Z,29.65
2023-03-21T01:55:15.381Z,27.95
2023-03-21T01:58:06.754Z,28.80
2023-03-21T02:00:38.020Z,28.58
2023-03-21T02:03:16.864Z,29.02
2023-03-21T02:06:08.413Z,30.92
2023-03-21T02:08:39.545Z,30.15
2023-03-21T02:11:11.294Z,29.70
2023-03-21T02:13:38.192Z,30.73
2023-03-21T02:16:32.410Z,28.33
2023-03-21T02:19:53.396Z,30.00
2023-03-21T02:23:06.694Z,30.02
2023-03-21T02:26:10.463Z,28.42
2023-03-21T02:28:57.779Z,30.63
2023-03-21T02:32:20.509Z,29.23
2023-03-21T02:35:58.603Z,31.75
2023-03-21T02:39:00.394Z,30.40
2023-03-21T02:41:55.064Z,33.28
2023-03-21T02:44:58.190Z,30.83
2023-03-21T02:47:42.652Z,31.27
2023-03-21T02:50:27.083Z,33.42
2023-03-21T02:53:06.882Z,31.77
2023-03-21T02:55:38.501Z,31.67
2023-03-21T02:58:16.493Z,32.20
2023-03-21T03:00:47.124Z,31.95
2023-03-21T03:03:27.987Z,31.27
2023-03-21T03:06:07.778Z,31.23
2023-03-21T03:09:02.908Z,33.92
2023-03-21T03:11:47.404Z,33.22
2023-03-21T03:15:03.145Z,31.85
2023-03-21T03:18:13.467Z,35.53
2023-03-21T03:21:23.000Z,30.35
2023-03-21T03:24:03.549Z,34.35
2023-03-21T03:26:43.511Z,31.02
2023-03-21T03:29:18.456Z,30.70
2023-03-21T03:32:17.451Z,34.42
2023-03-21T03:34:56.274Z,31.95
2023-03-21T03:37:37.761Z,32.70
2023-03-21T03:40:25.478Z,33.55
2023-03-21T03:43:00.630Z,32.28
2023-03-21T03:45:43.582Z,32.92
2023-03-21T03:48:29.187Z,32.50
2023-03-21T03:51:21.067Z,31.52
2023-03-21T03:54:00.720Z,33.25
2023-03-21T03:56:29.390Z,33.75
2023-03-21T03:58:57.898Z,33.83
2023-03-21T04:01:25.215Z,34.63
2023-03-21T04:04:01.024Z,31.73
2023-03-21T04:06:38.565Z,32.78
2023-03-21T04:09:19.287Z,32.80
2023-03-21T04:11:58.107Z,34.30
2023-03-21T04:14:35.594Z,33.78
2023-03-21T04:17:08.956Z,35.47
2023-03-21T04:19:36.083Z,34.35
2023-03-21T04:22:09.152Z,32.75
2023-03-21T04:24:37.392Z,34.53
2023-03-21T04:27:06.134Z,34.85
2023-03-21T04:29:33.516Z,36.22
2023-03-21T04:32:01.378Z,36.15
2023-03-21T04:34:31.493Z,35.33
2023-03-21T04:37:00.178Z,34.38
2023-03-21T04:39:27.090Z,31.75
2023-03-21T04:41:56.971Z,37.00
2023-03-21T04:44:23.582Z,35.58
2023-03-21T04:46:50.574Z,35.75
2023-03-21T04:49:18.893Z,36.05
2023-03-21T04:51:45.656Z,37.90
2023-03-21T04:56:44.680Z,36.45
2023-03-21T04:59:16.646Z,35.42
2023-03-21T05:01:43.905Z,41.67
2023-03-21T05:04:16.620Z,34.88
2023-03-21T05:06:45.960Z,37.20
2023-03-21T05:09:14.186Z,35.88
2023-03-21T05:11:44.397Z,36.83
2023-03-21T05:14:31.652Z,40.40
2023-03-21T05:17:05.487Z,36.25
2023-03-21T05:19:35.777Z,37.35
2023-03-21T05:22:10.604Z,36.67
2023-03-21T05:24:41.925Z,37.92
2023-03-21T05:27:08.776Z,36.92
2023-03-21T05:29:35.508Z,35.70
2023-03-21T05:32:02.916Z,32.85
2023-03-21T05:34:35.869Z,35.72
2023-03-21T05:37:05.554Z,36.15
2023-03-21T05:39:35.373Z,32.60
2023-03-21T05:42:18.345Z,33.70
2023-03-21T05:44:46.287Z,36.05
2023-03-21T05:47:18.849Z,33.55
2023-03-21T05:49:47.154Z,32.97
2023-03-21T05:52:14.740Z,32.17
2023-03-21T05:54:44.486Z,33.75
2023-03-21T05:57:12.043Z,35.90
2023-03-21T05:59:38.852Z,34.63
2023-03-21T06:02:06.004Z,34.28
2023-03-21T06:04:32.666Z,35.97
2023-03-21T06:06:59.527Z,35.65
2023-03-21T06:09:26.618Z,37.63
2023-03-21T06:11:57.039Z,37.50
2023-03-21T06:14:24.716Z,35.90
2023-03-21T06:16:54.531Z,38.70
2023-03-21T06:19:21.855Z,42.10
2023-03-21T06:21:54.945Z,40.53
2023-03-21T07:13:05.803Z,41.42
2023-03-21T07:15:34.347Z,42.25
2023-03-21T07:18:01.144Z,40.92
2023-03-21T07:34:00.826Z,40.78
2023-03-21T07:52:44.076Z,37.20
2023-03-21T07:55:12.272Z,35.72
2023-03-21T07:57:40.466Z,34.42
2023-03-21T08:00:08.716Z,35.45
2023-03-21T08:02:37.350Z,34.90
2023-03-21T08:05:04.725Z,33.42
2023-03-21T08:07:32.481Z,32.53
2023-03-21T08:09:59.770Z,34.45
2023-03-21T08:12:26.550Z,32.20
2023-03-21T08:14:53.207Z,33.40
2023-03-21T08:17:19.833Z,34.70
2023-03-21T08:19:46.589Z,34.33
2023-03-21T08:22:16.798Z,32.75
2023-03-21T08:24:43.567Z,31.48
2023-03-21T08:27:10.305Z,32.22
2023-03-21T08:29:43.166Z,31.40
2023-03-21T08:32:09.981Z,30.58
2023-03-21T08:34:37.180Z,29.52
2023-03-21T08:37:04.301Z,32.78
2023-03-21T08:39:33.416Z,29.13
2023-03-21T08:42:02.572Z,29.95
2023-03-21T08:44:29.268Z,27.02
2023-03-21T08:46:58.976Z,29.35
2023-03-21T08:49:26.973Z,27.02
2023-03-21T08:51:59.252Z,28.63
2023-03-21T08:54:25.919Z,28.67
2023-03-21T08:56:52.847Z,27.83
2023-03-21T08:59:21.101Z,30.08
2023-03-21T09:01:47.841Z,29.35
2023-03-21T09:04:15.729Z,30.40
2023-03-21T09:06:45.588Z,31.48
2023-03-21T09:09:12.688Z,30.85
2023-03-21T09:11:41.557Z,31.17
2023-03-21T09:14:11.817Z,30.30
2023-03-21T09:16:38.953Z,33.00
2023-03-21T09:19:09.050Z,33.55
2023-03-21T09:21:36.767Z,35.28
2023-03-21T09:24:05.683Z,35.72
2023-03-21T09:26:33.624Z,31.75
2023-03-21T09:29:01.132Z,34.78
2023-03-21T09:31:28.675Z,34.67
2023-03-21T09:34:00.590Z,34.70
2023-03-21T09:36:27.570Z,33.88
2023-03-21T09:38:58.097Z,33.63
2023-03-21T09:41:59.294Z,34.45
2023-03-21T09:44:59.748Z,31.73
2023-03-21T09:47:37.639Z,33.33
2023-03-21T09:50:21.905Z,33.00
2023-03-21T09:53:19.182Z,35.20
2023-03-21T09:55:47.128Z,31.70
2023-03-21T09:59:02.466Z,34.33
2023-03-21T10:01:41.961Z,33.67
2023-03-21T10:04:24.631Z,32.60
2023-03-21T10:07:06.549Z,36.03
2023-03-21T10:09:34.822Z,33.38
2023-03-21T10:12:16.382Z,34.70
2023-03-21T10:14:51.634Z,32.63
2023-03-21T10:17:34.277Z,32.50
2023-03-21T10:20:27.544Z,34.55
2023-03-21T10:23:04.254Z,31.70
2023-03-21T10:26:01.355Z,31.48
2023-03-21T10:28:51.970Z,31.70
2023-03-21T10:31:26.428Z,32.10
2023-03-21T10:34:02.533Z,34.13
2023-03-21T10:36:33.762Z,34.05
2023-03-21T10:39:33.313Z,31.50
2023-03-21T10:42:06.563Z,30.92
2023-03-21T10:44:36.153Z,33.05
2023-03-21T10:47:10.030Z,30.77
2023-03-21T10:50:05.826Z,33.33
2023-03-21T10:52:50.772Z,29.63
2023-03-21T10:55:33.752Z,28.58
2023-03-21T10:58:18.950Z,30.15
2023-03-21T11:00:48.003Z,28.58
2023-03-21T11:03:32.770Z,29.25
2023-03-21T11:06:27.655Z,27.23
2023-03-21T11:12:05.779Z,26.40
2023-03-21T11:14:48.408Z,28.73
2023-03-21T11:17:17.916Z,26.95
2023-03-21T11:20:05.612Z,26.20
2023-03-21T11:22:46.547Z,26.08
2023-03-21T11:25:36.542Z,23.02
2023-03-21T11:28:15.954Z,23.70
2023-03-21T11:31:01.387Z,24.35
2023-03-21T11:33:46.402Z,23.10
2023-03-21T11:36:19.342Z,23.35
2023-03-21T11:38:58.652Z,22.80
2023-03-21T11:41:34.955Z,25.30
2023-03-21T11:44:04.885Z,24.85
2023-03-21T11:46:45.677Z,23.52
2023-03-21T11:49:12.428Z,25.10
2023-03-21T11:52:30.572Z,24.55
2023-03-21T11:55:51.597Z,24.15
2023-03-21T11:58:56.253Z,23.92
2023-03-21T12:01:57.315Z,23.42
2023-03-21T12:04:51.611Z,24.23
2023-03-21T12:08:05.016Z,23.67
2023-03-21T12:11:04.869Z,23.98
2023-03-21T12:14:09.312Z,22.55
2023-03-21T12:17:41.039Z,25.92
2023-03-21T12:20:42.080Z,25.38
2023-03-21T12:23:46.755Z,25.33
2023-03-21T12:26:28.235Z,23.90
2023-03-21T12:29:50.937Z,24.50
2023-03-21T12:32:58.298Z,23.83
2023-03-21T12:35:50.158Z,27.73
2023-03-21T12:38:44.140Z,24.88
2023-03-21T12:41:28.739Z,25.47
2023-03-21T12:47:22.401Z,24.50
2023-03-21T12:50:15.382Z,25.13
2023-03-21T12:52:54.213Z,25.10
2023-03-21T12:55:32.459Z,26.67
2023-03-21T12:58:21.876Z,27.52
2023-03-21T13:00:58.352Z,26.35
2023-03-21T13:03:43.830Z,25.08
2023-03-21T13:06:18.356Z,24.50
2023-03-21T13:09:37.641Z,24.35
2023-03-21T13:12:49.434Z,21.52
2023-03-21T13:15:53.816Z,23.45
2023-03-21T13:18:59.581Z,16.60
2023-03-21T13:22:08.849Z,20.20
2023-03-21T13:24:50.720Z,17.73
2023-03-21T13:27:35.394Z,16.75
2023-03-21T13:30:14.542Z,15.73
2023-03-21T13:32:50.732Z,15.80
2023-03-21T13:35:41.739Z,14.88
2023-03-21T13:38:29.651Z,14.48
2023-03-21T13:41:09.437Z,13.23
2023-03-21T13:43:53.345Z,13.30
2023-03-21T13:46:28.214Z,13.95
2023-03-21T13:49:27.363Z,13.45
2023-03-21T13:51:58.851Z,12.82
2023-03-21T13:54:53.725Z,14.48
2023-03-21T14:00:30.862Z,12.00
2023-03-21T14:03:18.555Z,12.90
2023-03-21T14:05:51.971Z,13.77
2023-03-21T14:08:48.912Z,13.95
2023-03-21T14:11:34.863Z,13.80
2023-03-21T14:14:29.910Z,11.82
2023-03-21T14:16:56.669Z,11.48
2023-03-21T14:19:32.800Z,12.98
2023-03-21T14:21:59.490Z,11.43
2023-03-21T14:24:34.400Z,13.88
2023-03-21T14:27:11.849Z,13.07
2023-03-21T14:29:40.272Z,14.15
2023-03-21T14:32:25.392Z,14.00
2023-03-21T14:34:55.547Z,13.40
2023-03-21T14:37:54.515Z,12.55
2023-03-21T14:40:27.341Z,12.75
2023-03-21T14:43:14.979Z,14.98
2023-03-21T14:45:52.839Z,14.63
2023-03-21T14:48:35.231Z,13.93
2023-03-21T14:51:12.248Z,15.00
2023-03-21T14:53:45.270Z,13.50
2023-03-21T14:56:25.610Z,15.55
2023-03-21T14:58:53.959Z,15.75
2023-03-21T15:01:35.038Z,14.35
2023-03-21T15:15:20.907Z,11.27
2023-03-21T15:17:49.778Z,12.38
2023-03-21T15:20:17.051Z,14.80
2023-03-21T15:22:57.688Z,15.68
2023-03-21T15:25:35.691Z,12.73
2023-03-21T15:28:04.872Z,15.20
2023-03-21T15:30:34.403Z,13.23
2023-03-21T15:33:21.006Z,13.02
2023-03-21T15:35:56.542Z,13.98
2023-03-21T15:38:45.695Z,13.70
2023-03-21T15:41:21.460Z,11.95
2023-03-21T15:44:10.197Z,13.52
2023-03-21T15:46:51.190Z,12.25
2023-03-21T15:49:33.557Z,12.55
2023-03-21T15:52:19.709Z,11.05
2023-03-21T15:54:59.342Z,13.85
2023-03-21T15:57:33.996Z,12.52
2023-03-21T16:00:18.311Z,12.85
2023-03-21T16:02:46.206Z,11.60
2023-03-21T16:05:30.538Z,13.07
2023-03-21T16:08:28.031Z,12.95
2023-03-21T16:11:05.602Z,12.05
2023-03-21T16:13:32.328Z,10.77
2023-03-21T16:16:02.057Z,12.23
2023-03-21T16:18:33.373Z,12.25
2023-03-21T16:21:00.099Z,10.82
2023-03-21T16:23:26.942Z,13.20
2023-03-21T16:25:57.780Z,13.23
2023-03-21T16:28:24.567Z,13.00
2023-03-21T16:30:52.713Z,12.93
2023-03-21T16:33:19.431Z,12.75
2023-03-21T16:35:46.856Z,12.55
2023-03-21T16:38:19.411Z,14.00
2023-03-21T16:40:54.553Z,13.95
2023-03-21T16:43:21.247Z,14.23
2023-03-21T16:45:48.139Z,14.13
2023-03-21T16:48:17.426Z,14.48
2023-03-21T16:50:51.128Z,15.32
2023-03-21T16:53:21.065Z,14.07
2023-03-21T16:55:48.118Z,14.00
2023-03-21T16:58:16.619Z,16.50
2023-03-21T17:00:43.546Z,14.55
2023-03-21T17:03:19.872Z,15.93
2023-03-21T17:05:46.668Z,16.80
2023-03-21T17:08:19.998Z,17.10
2023-03-21T17:10:50.247Z,17.13
2023-03-21T17:13:17.026Z,16.98
2023-03-21T17:15:46.359Z,18.05
2023-03-21T17:18:13.301Z,17.50
2023-03-21T17:20:41.874Z,19.08
2023-03-21T17:23:11.996Z,20.90
2023-03-21T17:25:39.085Z,17.77
2023-03-21T17:28:05.948Z,18.92
2023-03-21T17:30:41.891Z,18.50
2023-03-21T17:33:11.517Z,19.83
2023-03-21T17:35:57.036Z,19.42
2023-03-21T17:38:23.865Z,21.02
2023-03-21T17:40:52.657Z,19.67
2023-03-21T17:43:21.550Z,20.00
2023-03-21T17:45:48.282Z,20.63
2023-03-21T18:15:30.472Z,27.50
2023-03-21T18:45:22.929Z,24.55
2023-03-21T19:20:43.548Z,26.30
2023-03-21T19:31:21.097Z,26.40
2023-03-21T19:33:48.644Z,27.92
2023-03-21T20:53:07.500Z,29.17
2023-03-21T20:58:37.094Z,34.63
2023-03-21T21:58:23.042Z,45.75
2023-03-21T22:00:50.151Z,46.38
2023-03-21T22:03:22.402Z,47.35
2023-03-21T22:44:17.083Z,42.22
2023-03-21T22:57:30.485Z,43.95
2023-03-21T23:16:11.052Z,41.05
2023-03-21T23:18:38.544Z,40.90
2023-03-21T23:59:12.104Z,35.67
